sensor_id;sensor_type;location;lat;lon;timestamp;pressure;altitude;pressure_sealevel;temperature;humidity
85130;BME280;75492;49.310;20.046;2024-03-22T00:04:07;92085.19;;;4.45;80.19
85130;BME280;75492;49.310;20.046;2024-03-22T00:09:09;92085.28;;;4.04;83.63
85130;BME280;75492;49.310;20.046;2024-03-22T00:14:12;92077.16;;;4.37;82.44
85130;BME280;75492;49.310;20.046;2024-03-22T00:19:13;92071.47;;;4.52;81.89
85130;BME280;75492;49.310;20.046;2024-03-22T00:24:15;92066.75;;;4.71;81.94
85130;BME280;75492;49.310;20.046;2024-03-22T00:29:18;92057.19;;;4.93;80.91
85130;BME280;75492;49.310;20.046;2024-03-22T00:34:19;92062.09;;;4.55;82.56
85130;BME280;75492;49.310;20.046;2024-03-22T00:39:21;92066.69;;;4.63;83.07
85130;BME280;75492;49.310;20.046;2024-03-22T00:44:24;92057.03;;;4.44;84.21
85130;BME280;75492;49.310;20.046;2024-03-22T00:49:25;92062.88;;;4.55;83.76
85130;BME280;75492;49.310;20.046;2024-03-22T00:54:26;92055.63;;;4.69;82.72
85130;BME280;75492;49.310;20.046;2024-03-22T00:59:29;92053.88;;;4.65;83.23
85130;BME280;75492;49.310;20.046;2024-03-22T01:04:31;92051.16;;;4.79;82.71
85130;BME280;75492;49.310;20.046;2024-03-22T01:09:32;92044.69;;;4.71;83.48
85130;BME280;75492;49.310;20.046;2024-03-22T01:14:35;92054.47;;;4.84;82.76
85130;BME280;75492;49.310;20.046;2024-03-22T01:19:37;92055.59;;;4.83;83.70
85130;BME280;75492;49.310;20.046;2024-03-22T01:24:38;92056.91;;;4.72;84.37
85130;BME280;75492;49.310;20.046;2024-03-22T01:29:41;92047.09;;;4.59;86.08
85130;BME280;75492;49.310;20.046;2024-03-22T01:34:43;92048.03;;;4.54;87.20
85130;BME280;75492;49.310;20.046;2024-03-22T01:39:44;92039.38;;;4.48;87.83
85130;BME280;75492;49.310;20.046;2024-03-22T01:44:48;92014.94;;;4.69;87.30
85130;BME280;75492;49.310;20.046;2024-03-22T01:49:51;92033.53;;;4.91;85.93
85130;BME280;75492;49.310;20.046;2024-03-22T01:54:55;92034.66;;;4.68;88.34
85130;BME280;75492;49.310;20.046;2024-03-22T01:59:59;92029.00;;;4.92;86.58
85130;BME280;75492;49.310;20.046;2024-03-22T02:05:11;92028.47;;;4.81;87.88
85130;BME280;75492;49.310;20.046;2024-03-22T02:10:13;92031.41;;;5.02;86.63
85130;BME280;75492;49.310;20.046;2024-03-22T02:15:16;92037.19;;;4.73;88.30
85130;BME280;75492;49.310;20.046;2024-03-22T02:20:18;92027.78;;;4.98;87.60
85130;BME280;75492;49.310;20.046;2024-03-22T02:25:20;92035.09;;;4.92;87.27
85130;BME280;75492;49.310;20.046;2024-03-22T02:30:22;92027.00;;;4.98;87.22
85130;BME280;75492;49.310;20.046;2024-03-22T02:35:24;92011.97;;;5.02;87.34
85130;BME280;75492;49.310;20.046;2024-03-22T02:40:27;92018.25;;;5.37;84.73
85130;BME280;75492;49.310;20.046;2024-03-22T02:45:29;92020.47;;;5.43;83.94
85130;BME280;75492;49.310;20.046;2024-03-22T02:50:32;92026.38;;;5.89;81.14
85130;BME280;75492;49.310;20.046;2024-03-22T02:55:39;92019.66;;;5.92;81.10
85130;BME280;75492;49.310;20.046;2024-03-22T03:00:40;92026.69;;;4.99;87.39
85130;BME280;75492;49.310;20.046;2024-03-22T03:05:42;92023.72;;;5.01;86.99
85130;BME280;75492;49.310;20.046;2024-03-22T03:10:45;92027.78;;;5.29;85.23
85130;BME280;75492;49.310;20.046;2024-03-22T03:15:46;92029.38;;;5.87;80.99
85130;BME280;75492;49.310;20.046;2024-03-22T03:20:48;92031.16;;;6.09;79.54
85130;BME280;75492;49.310;20.046;2024-03-22T03:25:51;92028.34;;;6.06;80.23
85130;BME280;75492;49.310;20.046;2024-03-22T03:30:52;92025.19;;;6.12;79.98
85130;BME280;75492;49.310;20.046;2024-03-22T03:35:53;92027.09;;;6.29;79.19
85130;BME280;75492;49.310;20.046;2024-03-22T03:40:56;92034.97;;;6.17;79.48
85130;BME280;75492;49.310;20.046;2024-03-22T03:45:58;92024.44;;;6.12;80.22
85130;BME280;75492;49.310;20.046;2024-03-22T03:51:02;92020.16;;;6.02;81.55
85130;BME280;75492;49.310;20.046;2024-03-22T03:56:05;92027.38;;;6.02;82.64
85130;BME280;75492;49.310;20.046;2024-03-22T04:01:06;92019.56;;;6.14;82.76
85130;BME280;75492;49.310;20.046;2024-03-22T04:06:08;92011.66;;;5.92;83.75
85130;BME280;75492;49.310;20.046;2024-03-22T04:11:11;92019.25;;;6.07;84.31
85130;BME280;75492;49.310;20.046;2024-03-22T04:16:12;92014.69;;;6.07;84.07
85130;BME280;75492;49.310;20.046;2024-03-22T04:21:13;92009.34;;;5.99;85.51
85130;BME280;75492;49.310;20.046;2024-03-22T04:26:16;92009.41;;;5.76;87.76
85130;BME280;75492;49.310;20.046;2024-03-22T04:31:18;92009.78;;;5.92;87.85
85130;BME280;75492;49.310;20.046;2024-03-22T04:36:19;92002.38;;;5.72;88.60
85130;BME280;75492;49.310;20.046;2024-03-22T04:41:22;91995.41;;;6.36;86.74
85130;BME280;75492;49.310;20.046;2024-03-22T04:46:23;92002.31;;;5.54;89.88
85130;BME280;75492;49.310;20.046;2024-03-22T04:51:25;92001.91;;;5.78;88.01
85130;BME280;75492;49.310;20.046;2024-03-22T04:56:28;91995.19;;;5.81;88.32
85130;BME280;75492;49.310;20.046;2024-03-22T05:01:29;92009.38;;;6.25;85.70
85130;BME280;75492;49.310;20.046;2024-03-22T05:06:30;92009.56;;;5.23;90.43
85130;BME280;75492;49.310;20.046;2024-03-22T05:11:33;92005.34;;;5.70;88.34
85130;BME280;75492;49.310;20.046;2024-03-22T05:16:35;92002.22;;;5.28;90.66
85130;BME280;75492;49.310;20.046;2024-03-22T05:21:36;91990.28;;;5.65;87.44
85130;BME280;75492;49.310;20.046;2024-03-22T05:26:39;91998.09;;;5.62;87.77
85130;BME280;75492;49.310;20.046;2024-03-22T05:31:46;92000.97;;;5.74;87.01
85130;BME280;75492;49.310;20.046;2024-03-22T05:36:48;92004.28;;;5.80;86.88
85130;BME280;75492;49.310;20.046;2024-03-22T05:41:51;92001.28;;;5.81;86.39
85130;BME280;75492;49.310;20.046;2024-03-22T05:46:52;92005.38;;;5.87;86.70
85130;BME280;75492;49.310;20.046;2024-03-22T05:51:53;92014.22;;;5.97;86.02
85130;BME280;75492;49.310;20.046;2024-03-22T05:56:56;92018.41;;;5.89;85.94
85130;BME280;75492;49.310;20.046;2024-03-22T06:01:58;92013.41;;;5.96;85.59
85130;BME280;75492;49.310;20.046;2024-03-22T06:06:59;92011.41;;;5.93;86.04
85130;BME280;75492;49.310;20.046;2024-03-22T06:12:04;92010.91;;;6.00;85.92
85130;BME280;75492;49.310;20.046;2024-03-22T06:17:06;92022.22;;;6.05;86.19
85130;BME280;75492;49.310;20.046;2024-03-22T06:22:07;92028.38;;;6.23;86.02
85130;BME280;75492;49.310;20.046;2024-03-22T06:27:11;92025.53;;;6.11;86.60
85130;BME280;75492;49.310;20.046;2024-03-22T06:32:13;92024.59;;;6.16;87.02
85130;BME280;75492;49.310;20.046;2024-03-22T06:37:14;92023.19;;;6.18;86.81
85130;BME280;75492;49.310;20.046;2024-03-22T06:42:17;92029.00;;;6.20;86.89
85130;BME280;75492;49.310;20.046;2024-03-22T06:47:18;92025.06;;;6.35;85.89
85130;BME280;75492;49.310;20.046;2024-03-22T06:52:20;92022.38;;;6.26;86.95
85130;BME280;75492;49.310;20.046;2024-03-22T06:57:23;92018.81;;;6.31;86.86
85130;BME280;75492;49.310;20.046;2024-03-22T07:02:24;92021.16;;;6.41;86.38
85130;BME280;75492;49.310;20.046;2024-03-22T07:07:25;92017.56;;;6.37;87.01
85130;BME280;75492;49.310;20.046;2024-03-22T07:12:29;92026.63;;;6.19;88.80
85130;BME280;75492;49.310;20.046;2024-03-22T07:17:30;92011.72;;;6.00;89.70
85130;BME280;75492;49.310;20.046;2024-03-22T07:22:32;92022.88;;;6.54;88.99
85130;BME280;75492;49.310;20.046;2024-03-22T07:27:35;92028.84;;;6.77;88.23
85130;BME280;75492;49.310;20.046;2024-03-22T07:32:36;92008.75;;;6.28;89.47
85130;BME280;75492;49.310;20.046;2024-03-22T07:37:38;92021.16;;;6.50;89.24
85130;BME280;75492;49.310;20.046;2024-03-22T07:42:41;92017.69;;;6.49;89.58
85130;BME280;75492;49.310;20.046;2024-03-22T07:47:42;92004.94;;;6.72;88.48
85130;BME280;75492;49.310;20.046;2024-03-22T07:52:44;91989.66;;;6.99;87.83
85130;BME280;75492;49.310;20.046;2024-03-22T07:57:47;91982.25;;;7.13;86.51
85130;BME280;75492;49.310;20.046;2024-03-22T08:02:49;91979.03;;;7.28;87.16
85130;BME280;75492;49.310;20.046;2024-03-22T08:07:50;91977.66;;;7.61;85.25
85130;BME280;75492;49.310;20.046;2024-03-22T08:12:53;91975.84;;;7.73;82.44
85130;BME280;75492;49.310;20.046;2024-03-22T08:17:54;91972.06;;;7.74;81.99
85130;BME280;75492;49.310;20.046;2024-03-22T08:22:56;91979.63;;;7.72;84.50
85130;BME280;75492;49.310;20.046;2024-03-22T08:27:59;91965.72;;;7.58;85.91
85130;BME280;75492;49.310;20.046;2024-03-22T08:33:01;91961.19;;;7.50;86.35
85130;BME280;75492;49.310;20.046;2024-03-22T08:38:03;91961.84;;;7.76;87.06
85130;BME280;75492;49.310;20.046;2024-03-22T08:43:06;91950.03;;;7.77;84.81
85130;BME280;75492;49.310;20.046;2024-03-22T08:48:08;91945.47;;;7.99;84.50
85130;BME280;75492;49.310;20.046;2024-03-22T08:53:09;91932.81;;;8.08;85.31
85130;BME280;75492;49.310;20.046;2024-03-22T08:58:12;91922.25;;;8.12;80.71
85130;BME280;75492;49.310;20.046;2024-03-22T09:03:14;91929.22;;;8.25;81.37
85130;BME280;75492;49.310;20.046;2024-03-22T09:08:15;91930.56;;;8.40;81.43
85130;BME280;75492;49.310;20.046;2024-03-22T09:13:19;91938.13;;;8.38;81.41
85130;BME280;75492;49.310;20.046;2024-03-22T09:18:20;91941.59;;;8.38;80.86
85130;BME280;75492;49.310;20.046;2024-03-22T09:23:22;91941.31;;;8.31;81.56
85130;BME280;75492;49.310;20.046;2024-03-22T09:28:25;91940.94;;;8.41;80.29
85130;BME280;75492;49.310;20.046;2024-03-22T09:33:26;91938.38;;;8.45;76.49
85130;BME280;75492;49.310;20.046;2024-03-22T09:38:27;91946.22;;;8.50;78.16
85130;BME280;75492;49.310;20.046;2024-03-22T09:43:31;91942.66;;;8.58;75.78
85130;BME280;75492;49.310;20.046;2024-03-22T09:48:33;91935.16;;;8.52;76.21
85130;BME280;75492;49.310;20.046;2024-03-22T09:53:36;91941.94;;;8.70;74.70
85130;BME280;75492;49.310;20.046;2024-03-22T09:58:40;91944.56;;;8.91;74.47
85130;BME280;75492;49.310;20.046;2024-03-22T10:03:42;91938.47;;;9.15;72.66
85130;BME280;75492;49.310;20.046;2024-03-22T10:08:44;91941.97;;;9.64;71.98
85130;BME280;75492;49.310;20.046;2024-03-22T10:13:47;91922.72;;;9.62;69.92
85130;BME280;75492;49.310;20.046;2024-03-22T10:18:48;91920.91;;;10.03;69.40
85130;BME280;75492;49.310;20.046;2024-03-22T10:23:50;91914.31;;;10.01;66.47
85130;BME280;75492;49.310;20.046;2024-03-22T10:28:53;91889.09;;;10.18;67.36
85130;BME280;75492;49.310;20.046;2024-03-22T10:33:55;91913.81;;;10.79;67.23
85130;BME280;75492;49.310;20.046;2024-03-22T10:38:57;91903.13;;;10.39;65.65
85130;BME280;75492;49.310;20.046;2024-03-22T10:44:01;91908.44;;;10.64;65.89
85130;BME280;75492;49.310;20.046;2024-03-22T10:49:02;91897.25;;;10.33;65.39
85130;BME280;75492;49.310;20.046;2024-03-22T10:54:04;91877.59;;;10.45;64.52
85130;BME280;75492;49.310;20.046;2024-03-22T10:59:09;91864.44;;;10.84;60.68
85130;BME280;75492;49.310;20.046;2024-03-22T11:04:19;91857.22;;;10.72;59.87
85130;BME280;75492;49.310;20.046;2024-03-22T11:09:22;91867.81;;;11.28;57.18
85130;BME280;75492;49.310;20.046;2024-03-22T11:14:25;91852.53;;;11.48;58.51
85130;BME280;75492;49.310;20.046;2024-03-22T11:19:26;91857.34;;;11.23;54.68
85130;BME280;75492;49.310;20.046;2024-03-22T11:24:27;91848.81;;;11.05;54.09
85130;BME280;75492;49.310;20.046;2024-03-22T11:29:30;91814.66;;;11.06;55.11
85130;BME280;75492;49.310;20.046;2024-03-22T11:34:32;91829.56;;;11.35;53.72
85130;BME280;75492;49.310;20.046;2024-03-22T11:39:33;91820.31;;;11.52;55.99
85130;BME280;75492;49.310;20.046;2024-03-22T11:44:37;91814.28;;;12.10;57.68
85130;BME280;75492;49.310;20.046;2024-03-22T11:49:39;91811.06;;;11.85;53.93
85130;BME280;75492;49.310;20.046;2024-03-22T11:54:41;91806.25;;;11.59;56.97
85130;BME280;75492;49.310;20.046;2024-03-22T11:59:44;91799.91;;;11.67;57.68
85130;BME280;75492;49.310;20.046;2024-03-22T12:04:46;91786.81;;;11.30;57.72
85130;BME280;75492;49.310;20.046;2024-03-22T12:09:48;91782.63;;;11.68;58.03
85130;BME280;75492;49.310;20.046;2024-03-22T12:14:51;91774.16;;;11.85;55.88
85130;BME280;75492;49.310;20.046;2024-03-22T12:19:52;91763.72;;;11.84;54.84
85130;BME280;75492;49.310;20.046;2024-03-22T12:24:53;91756.72;;;11.98;56.28
85130;BME280;75492;49.310;20.046;2024-03-22T12:29:56;91745.16;;;11.78;55.16
85130;BME280;75492;49.310;20.046;2024-03-22T12:34:58;91750.34;;;11.68;56.08
85130;BME280;75492;49.310;20.046;2024-03-22T12:39:59;91743.88;;;11.72;56.70
85130;BME280;75492;49.310;20.046;2024-03-22T12:45:02;91733.03;;;11.69;54.14
85130;BME280;75492;49.310;20.046;2024-03-22T12:50:04;91732.97;;;11.65;54.93
85130;BME280;75492;49.310;20.046;2024-03-22T12:55:06;91724.50;;;11.63;52.80
85130;BME280;75492;49.310;20.046;2024-03-22T13:00:11;91721.28;;;12.16;52.05
85130;BME280;75492;49.310;20.046;2024-03-22T13:05:12;91712.53;;;11.80;51.59
85130;BME280;75492;49.310;20.046;2024-03-22T13:10:14;91708.97;;;11.95;52.22
85130;BME280;75492;49.310;20.046;2024-03-22T13:15:17;91704.09;;;12.01;52.92
85130;BME280;75492;49.310;20.046;2024-03-22T13:20:19;91701.63;;;11.92;52.02
85130;BME280;75492;49.310;20.046;2024-03-22T13:25:22;91699.63;;;11.89;52.31
85130;BME280;75492;49.310;20.046;2024-03-22T13:30:25;91679.66;;;11.71;53.43
85130;BME280;75492;49.310;20.046;2024-03-22T13:35:26;91695.47;;;11.92;52.93
85130;BME280;75492;49.310;20.046;2024-03-22T13:40:28;91696.88;;;11.66;53.46
85130;BME280;75492;49.310;20.046;2024-03-22T13:45:31;91702.09;;;11.78;56.10
85130;BME280;75492;49.310;20.046;2024-03-22T13:50:32;91704.94;;;11.66;55.64
85130;BME280;75492;49.310;20.046;2024-03-22T13:55:34;91695.75;;;11.67;55.68
85130;BME280;75492;49.310;20.046;2024-03-22T14:00:37;91691.84;;;11.65;55.62
85130;BME280;75492;49.310;20.046;2024-03-22T14:05:39;91688.50;;;11.52;56.60
85130;BME280;75492;49.310;20.046;2024-03-22T14:10:41;91681.38;;;11.40;56.24
85130;BME280;75492;49.310;20.046;2024-03-22T14:15:47;91684.13;;;11.44;54.76
85130;BME280;75492;49.310;20.046;2024-03-22T14:20:49;91684.75;;;11.76;55.23
85130;BME280;75492;49.310;20.046;2024-03-22T14:25:50;91683.63;;;11.77;56.11
85130;BME280;75492;49.310;20.046;2024-03-22T14:30:53;91671.91;;;11.69;56.47
85130;BME280;75492;49.310;20.046;2024-03-22T14:35:55;91682.97;;;11.45;57.31
85130;BME280;75492;49.310;20.046;2024-03-22T14:40:56;91673.94;;;11.53;57.78
85130;BME280;75492;49.310;20.046;2024-03-22T14:46:00;91678.28;;;11.22;58.85
85130;BME280;75492;49.310;20.046;2024-03-22T14:51:03;91669.91;;;11.08;59.15
85130;BME280;75492;49.310;20.046;2024-03-22T14:56:05;91676.78;;;11.05;59.63
85130;BME280;75492;49.310;20.046;2024-03-22T15:01:08;91670.50;;;11.17;59.86
85130;BME280;75492;49.310;20.046;2024-03-22T15:06:09;91671.41;;;11.05;60.88
85130;BME280;75492;49.310;20.046;2024-03-22T15:11:11;91675.41;;;10.96;60.68
85130;BME280;75492;49.310;20.046;2024-03-22T15:16:14;91675.31;;;11.08;60.41
85130;BME280;75492;49.310;20.046;2024-03-22T15:21:15;91671.47;;;10.74;60.54
85130;BME280;75492;49.310;20.046;2024-03-22T15:26:16;91678.94;;;10.65;60.71
85130;BME280;75492;49.310;20.046;2024-03-22T15:31:19;91675.47;;;10.64;61.09
85130;BME280;75492;49.310;20.046;2024-03-22T15:36:20;91665.78;;;10.44;60.75
85130;BME280;75492;49.310;20.046;2024-03-22T15:41:22;91664.41;;;10.50;61.19
85130;BME280;75492;49.310;20.046;2024-03-22T15:46:25;91668.38;;;10.56;61.43
85130;BME280;75492;49.310;20.046;2024-03-22T15:51:26;91673.06;;;10.43;61.27
85130;BME280;75492;49.310;20.046;2024-03-22T15:56:28;91658.69;;;10.35;60.92
85130;BME280;75492;49.310;20.046;2024-03-22T16:01:31;91664.13;;;10.07;61.01
85130;BME280;75492;49.310;20.046;2024-03-22T16:06:33;91658.97;;;10.46;60.44
85130;BME280;75492;49.310;20.046;2024-03-22T16:11:34;91655.19;;;10.19;61.51
85130;BME280;75492;49.310;20.046;2024-03-22T16:16:37;91651.63;;;9.99;61.13
85130;BME280;75492;49.310;20.046;2024-03-22T16:21:38;91663.72;;;9.77;62.14
85130;BME280;75492;49.310;20.046;2024-03-22T16:26:40;91659.19;;;9.65;62.91
85130;BME280;75492;49.310;20.046;2024-03-22T16:31:43;91662.38;;;9.55;63.72
85130;BME280;75492;49.310;20.046;2024-03-22T16:36:44;91643.34;;;9.32;63.61
85130;BME280;75492;49.310;20.046;2024-03-22T16:41:45;91658.59;;;10.48;61.72
85130;BME280;75492;49.310;20.046;2024-03-22T16:46:48;91673.09;;;10.78;61.12
85130;BME280;75492;49.310;20.046;2024-03-22T16:51:50;91632.66;;;10.71;59.84
85130;BME280;75492;49.310;20.046;2024-03-22T16:56:51;91669.63;;;10.94;59.64
85130;BME280;75492;49.310;20.046;2024-03-22T17:01:54;91665.03;;;10.94;58.85
85130;BME280;75492;49.310;20.046;2024-03-22T17:06:55;91663.13;;;10.79;58.94
85130;BME280;75492;49.310;20.046;2024-03-22T17:11:57;91676.84;;;10.74;59.24
85130;BME280;75492;49.310;20.046;2024-03-22T17:17:00;91677.56;;;10.71;59.52
85130;BME280;75492;49.310;20.046;2024-03-22T17:22:02;91676.16;;;10.77;59.18
85130;BME280;75492;49.310;20.046;2024-03-22T17:27:03;91656.97;;;10.43;59.61
85130;BME280;75492;49.310;20.046;2024-03-22T17:32:06;91673.94;;;10.98;58.53
85130;BME280;75492;49.310;20.046;2024-03-22T17:37:08;91680.94;;;10.68;59.99
85130;BME280;75492;49.310;20.046;2024-03-22T17:42:09;91678.34;;;11.06;60.04
85130;BME280;75492;49.310;20.046;2024-03-22T17:47:12;91676.78;;;11.05;59.65
85130;BME280;75492;49.310;20.046;2024-03-22T17:52:14;91672.31;;;10.94;59.66
85130;BME280;75492;49.310;20.046;2024-03-22T17:57:15;91673.56;;;10.80;59.47
85130;BME280;75492;49.310;20.046;2024-03-22T18:02:19;91668.63;;;10.67;59.58
85130;BME280;75492;49.310;20.046;2024-03-22T18:07:20;91671.94;;;10.44;60.26
85130;BME280;75492;49.310;20.046;2024-03-22T18:12:22;91672.19;;;10.23;60.81
85130;BME280;75492;49.310;20.046;2024-03-22T18:17:24;91667.75;;;10.15;60.89
85130;BME280;75492;49.310;20.046;2024-03-22T18:22:26;91654.13;;;9.92;61.35
85130;BME280;75492;49.310;20.046;2024-03-22T18:27:27;91656.69;;;9.73;62.13
85130;BME280;75492;49.310;20.046;2024-03-22T18:32:30;91651.16;;;9.37;62.70
85130;BME280;75492;49.310;20.046;2024-03-22T18:37:32;91664.22;;;8.99;63.58
85130;BME280;75492;49.310;20.046;2024-03-22T18:42:33;91668.03;;;8.98;63.99
85130;BME280;75492;49.310;20.046;2024-03-22T18:47:37;91663.00;;;8.96;63.48
85130;BME280;75492;49.310;20.046;2024-03-22T18:52:38;91662.91;;;8.92;63.94
85130;BME280;75492;49.310;20.046;2024-03-22T18:57:39;91654.91;;;8.31;66.11
85130;BME280;75492;49.310;20.046;2024-03-22T19:02:42;91652.09;;;7.91;67.80
85130;BME280;75492;49.310;20.046;2024-03-22T19:07:44;91641.66;;;8.10;67.39
85130;BME280;75492;49.310;20.046;2024-03-22T19:12:45;91629.41;;;7.51;69.01
85130;BME280;75492;49.310;20.046;2024-03-22T19:17:52;91620.16;;;7.49;70.00
85130;BME280;75492;49.310;20.046;2024-03-22T19:22:54;91617.81;;;7.47;69.21
85130;BME280;75492;49.310;20.046;2024-03-22T19:27:55;91609.25;;;7.54;69.22
85130;BME280;75492;49.310;20.046;2024-03-22T19:32:58;91605.72;;;7.29;70.41
85130;BME280;75492;49.310;20.046;2024-03-22T19:38:00;91604.09;;;7.49;69.37
85130;BME280;75492;49.310;20.046;2024-03-22T19:43:02;91596.63;;;7.30;70.23
85130;BME280;75492;49.310;20.046;2024-03-22T19:48:05;91589.31;;;7.51;70.09
85130;BME280;75492;49.310;20.046;2024-03-22T19:53:07;91585.53;;;7.65;68.67
85130;BME280;75492;49.310;20.046;2024-03-22T19:58:09;91579.94;;;7.33;70.06
85130;BME280;75492;49.310;20.046;2024-03-22T20:03:12;91571.22;;;7.36;69.27
85130;BME280;75492;49.310;20.046;2024-03-22T20:08:13;91570.94;;;7.04;70.40
85130;BME280;75492;49.310;20.046;2024-03-22T20:13:15;91574.25;;;7.01;70.97
85130;BME280;75492;49.310;20.046;2024-03-22T20:18:18;91546.59;;;7.18;70.26
85130;BME280;75492;49.310;20.046;2024-03-22T20:23:19;91561.31;;;7.24;70.63
85130;BME280;75492;49.310;20.046;2024-03-22T20:28:21;91556.78;;;7.49;69.71
85130;BME280;75492;49.310;20.046;2024-03-22T20:33:24;91559.50;;;7.74;69.32
85130;BME280;75492;49.310;20.046;2024-03-22T20:38:25;91558.59;;;7.82;69.49
